BQR weather

Buffalo Lancaster Regional Airport
Lancaster, New York, United States

Public forecast

Using degrees Fahrenheit for public forecast. Weather courtesy of forecast.io.

Closest aviation weather report (METAR) to Buffalo Lancaster Regional Airport

Closest report is Buffalo Niagara International Airport, 5.4 nm (10.0 km) WNW. Retrieved 2019/10/19 19:54 UTC (54 minutes ago):

KBUF 191954Z VRB06KT 10SM SCT180 BKN250 14/03 A2997 RMK AO2 SLP152 T01390028

Closest aviation forecast (TAF) to Buffalo Lancaster Regional Airport

Closest forecast is Buffalo Niagara International Airport, 5.4 nm (10.0 km) WNW. Retrieved 2019/10/19 18:40 UTC (2 hours ago):

TAF KBUF 191738Z 1918/2018 VRB05KT P6SM FEW250 FM192300 12007KT P6SM FEW250 FM201300 20005KT P6SM FEW250